Time;durP1;ratioP1;P1;durP2;ratioP2;P2;SDS_P1;SDS_P2;PMS_P1;PMS_P2;Temp;Humidity;BMP_temperature;BMP_pressure;BME280_temperature;BME280_humidity;BME280_pressure;Samples;Min_cycle;Max_cycle;Signal;HPM_P1;HPM_P2
2022/09/09 00:00:38;;;;;;;9.00;4.00;;;;;;;13.19;74.10;100135.95;104727;1277;99415;-68
2022/09/09 00:03:31;;;;;;;9.20;4.20;;;;;;;13.12;75.18;100126.77;105254;1278;108855;-70
2022/09/09 00:06:03;;;;;;;8.50;4.20;;;;;;;13.03;74.67;100122.16;105178;1279;138282;-70
2022/09/09 00:08:59;;;;;;;9.60;4.10;;;;;;;13.00;74.82;100125.48;105289;1279;95637;-71
2022/09/09 00:11:40;;;;;;;8.00;3.80;;;;;;;12.88;75.23;100120.08;105060;1277;139922;-71
2022/09/09 00:14:22;;;;;;;9.10;4.30;;;;;;;12.86;74.98;100123.73;105040;1279;99505;-70
2022/09/09 00:16:58;;;;;;;9.50;4.40;;;;;;;12.84;74.71;100125.24;105301;1278;138219;-71
2022/09/09 00:19:38;;;;;;;9.60;4.60;;;;;;;12.88;75.29;100125.62;105356;1278;95156;-71
2022/09/09 00:22:17;;;;;;;9.30;4.60;;;;;;;12.94;75.39;100125.90;105090;1279;137799;-70
2022/09/09 00:24:49;;;;;;;9.20;4.40;;;;;;;12.92;74.98;100125.66;105191;1279;109651;-72
2022/09/09 00:27:22;;;;;;;9.00;4.80;;;;;;;12.85;75.19;100125.88;105253;1280;99420;-73
2022/09/09 00:30:14;;;;;;;10.10;4.70;;;;;;;12.80;75.61;100130.54;105565;1278;139198;-73
2022/09/09 00:32:44;;;;;;;9.60;4.80;;;;;;;12.79;75.78;100130.23;105216;1279;95527;-71
2022/09/09 00:35:39;;;;;;;11.70;5.00;;;;;;;12.80;75.58;100133.77;105278;1279;137675;-70
2022/09/09 00:38:15;;;;;;;9.70;5.00;;;;;;;12.83;75.84;100131.52;105072;1279;110234;-71
2022/09/09 00:41:19;;;;;;;11.20;5.30;;;;;;;12.76;75.85;100136.62;105221;1279;137723;-70
2022/09/09 00:44:03;;;;;;;9.20;4.80;;;;;;;12.72;76.31;100136.75;104570;1279;107893;-69
2022/09/09 00:46:34;;;;;;;10.00;5.30;;;;;;;12.68;76.46;100137.27;104793;1278;138898;-69
2022/09/09 00:49:21;;;;;;;10.10;5.30;;;;;;;12.65;76.48;100135.27;104772;1278;95129;-71
2022/09/09 00:52:03;;;;;;;8.80;4.70;;;;;;;12.63;76.61;100135.87;104566;1279;139291;-68
2022/09/09 00:54:47;;;;;;;10.70;5.30;;;;;;;12.66;76.47;100138.25;104804;1279;99667;-68
2022/09/09 00:57:31;;;;;;;11.20;5.70;;;;;;;12.60;76.93;100140.98;104666;1279;108024;-69
2022/09/09 01:00:26;;;;;;;9.90;5.40;;;;;;;12.55;77.06;100137.95;104564;1279;138378;-69
2022/09/09 01:03:23;;;;;;;10.70;5.70;;;;;;;12.44;77.72;100135.88;104668;1278;95241;-71
2022/09/09 01:06:01;;;;;;;10.80;5.40;;;;;;;12.42;78.01;100128.66;104512;1279;139007;-70
2022/09/09 01:08:50;;;;;;;11.20;5.90;;;;;;;12.39;78.06;100125.56;104765;1278;98763;-70
2022/09/09 01:11:25;;;;;;;13.60;5.80;;;;;;;12.47;78.18;100128.66;104402;1279;138228;-69
2022/09/09 01:14:11;;;;;;;10.60;5.40;;;;;;;12.43;77.98;100124.34;104631;1279;95649;-71
2022/09/09 01:16:41;;;;;;;10.30;5.70;;;;;;;12.42;78.15;100124.72;104555;1279;138994;-69
2022/09/09 01:19:19;;;;;;;9.80;5.40;;;;;;;12.45;78.21;100121.98;104605;1279;110062;-70
2022/09/09 01:22:02;;;;;;;10.50;5.70;;;;;;;12.49;78.24;100113.59;104595;1279;139013;-70
2022/09/09 01:25:03;;;;;;;10.70;5.60;;;;;;;12.49;78.25;100115.40;104638;1279;108857;-70
2022/09/09 01:27:56;;;;;;;10.60;5.40;;;;;;;12.52;78.37;100117.40;104495;1279;138939;-69
2022/09/09 01:30:27;;;;;;;11.50;5.50;;;;;;;12.56;78.42;100115.31;103406;1280;1503488;-70
2022/09/09 01:33:00;;;;;;;11.20;6.00;;;;;;;12.55;78.12;100112.15;104553;1281;108765;-69
2022/09/09 01:35:31;;;;;;;11.10;6.20;;;;;;;12.54;78.18;100110.55;104509;1280;139169;-69
2022/09/09 01:38:01;;;;;;;12.90;6.20;;;;;;;12.55;78.32;100107.30;104600;1279;108936;-69
2022/09/09 01:40:29;;;;;;;10.80;5.40;;;;;;;12.55;78.43;100113.92;104564;1279;140160;-69
2022/09/09 01:42:58;;;;;;;11.20;6.00;;;;;;;12.57;78.36;100116.02;104721;1279;95245;-69
2022/09/09 01:45:27;;;;;;;12.50;6.10;;;;;;;12.55;78.55;100118.21;104666;1279;109948;-70
2022/09/09 01:47:56;;;;;;;10.90;6.10;;;;;;;12.48;78.62;100122.20;104758;1279;138523;-70
2022/09/09 01:50:44;;;;;;;11.50;6.10;;;;;;;12.47;79.11;100123.85;104873;1279;105991;-69
2022/09/09 01:53:15;;;;;;;11.70;6.20;;;;;;;12.46;79.01;100118.90;104717;1279;139656;-68
2022/09/09 01:55:56;;;;;;;12.60;6.20;;;;;;;12.49;79.24;100114.15;104908;1279;95557;-69
2022/09/09 01:58:56;;;;;;;11.50;6.50;;;;;;;12.51;79.39;100112.45;104877;1279;139197;-70
2022/09/09 02:01:42;;;;;;;11.70;6.40;;;;;;;12.56;79.31;100113.54;104881;1279;98918;-70
2022/09/09 02:04:39;;;;;;;11.60;6.40;;;;;;;12.60;79.15;100113.38;104849;1279;139774;-69
2022/09/09 02:07:16;;;;;;;11.80;5.90;;;;;;;12.63;79.13;100107.53;104935;1279;95228;-69
2022/09/09 02:09:49;;;;;;;12.70;6.40;;;;;;;12.66;78.84;100105.66;104686;1279;138983;-69
2022/09/09 02:12:22;;;;;;;12.40;7.00;;;;;;;12.67;79.04;100102.73;104612;1279;109818;-70
2022/09/09 02:14:59;;;;;;;11.10;6.40;;;;;;;12.72;78.84;100097.04;104776;1279;99479;-70
2022/09/09 02:17:33;;;;;;;11.10;6.40;;;;;;;12.69;78.57;100095.73;104265;1280;139148;-70
2022/09/09 02:20:14;;;;;;;10.40;6.00;;;;;;;12.64;78.76;100092.36;104622;1279;95553;-69
2022/09/09 02:22:56;;;;;;;12.40;6.80;;;;;;;12.59;79.07;100094.54;104620;1279;138487;-70
2022/09/09 02:25:29;;;;;;;11.30;6.40;;;;;;;12.60;79.32;100095.41;104768;1279;109928;-71
2022/09/09 02:28:08;;;;;;;12.00;6.40;;;;;;;12.61;79.13;100098.71;104509;1278;139979;-69
2022/09/09 02:30:38;;;;;;;12.10;6.20;;;;;;;12.61;79.11;100106.39;104678;1279;108730;-71
2022/09/09 02:33:10;;;;;;;12.40;6.80;;;;;;;12.66;79.06;100106.71;104911;1278;95367;-71
2022/09/09 02:35:52;;;;;;;12.00;6.80;;;;;;;12.70;79.13;100110.27;104704;1279;138769;-68
2022/09/09 02:38:28;;;;;;;10.70;6.20;;;;;;;12.66;79.05;100119.00;104659;1278;110040;-69
2022/09/09 02:41:03;;;;;;;12.60;6.70;;;;;;;12.60;79.15;100119.96;104010;1279;139730;-69
2022/09/09 02:43:36;;;;;;;11.90;6.60;;;;;;;12.58;79.47;100115.23;104399;1279;107787;-69
2022/09/09 02:46:32;;;;;;;11.50;6.70;;;;;;;12.56;79.65;100115.30;104314;1279;139419;-69
2022/09/09 02:49:05;;;;;;;12.40;7.20;;;;;;;12.66;79.84;100110.29;104149;1280;95210;-71
2022/09/09 02:51:43;;;;;;;11.40;6.70;;;;;;;12.67;79.59;100112.71;104142;1279;109718;-70
2022/09/09 02:54:28;;;;;;;12.30;7.10;;;;;;;12.69;79.54;100112.80;104137;1279;98452;-69
2022/09/09 02:57:03;;;;;;;12.10;7.30;;;;;;;12.71;79.61;100112.21;104217;1279;108880;-70
2022/09/09 02:59:34;;;;;;;12.00;6.50;;;;;;;12.68;79.62;100112.51;104106;1279;139584;-70
2022/09/09 03:02:03;;;;;;;13.20;6.80;;;;;;;12.67;79.62;100108.08;103992;1279;95314;-71
2022/09/09 03:04:32;;;;;;;12.00;6.90;;;;;;;12.69;79.81;100106.41;104034;1279;139587;-70
2022/09/09 03:07:00;;;;;;;13.10;6.70;;;;;;;12.68;79.64;100108.08;104222;1279;99615;-71
2022/09/09 03:09:28;;;;;;;12.60;6.90;;;;;;;12.66;80.03;100106.52;104164;1279;109040;-71
2022/09/09 03:11:56;;;;;;;11.40;6.10;;;;;;;12.67;80.07;100106.48;103839;1279;140337;-70
2022/09/09 03:14:25;;;;;;;10.60;6.60;;;;;;;12.66;80.11;100105.30;104165;1279;95201;-71
2022/09/09 03:16:56;;;;;;;10.90;6.50;;;;;;;12.63;80.12;100111.27;104029;1280;138086;-71
2022/09/09 03:19:24;;;;;;;9.90;6.10;;;;;;;12.64;80.45;100108.05;104151;1280;99511;-71
2022/09/09 03:21:52;;;;;;;9.60;6.10;;;;;;;12.67;80.25;100104.92;104191;1279;138613;-72
2022/09/09 03:24:21;;;;;;;9.50;5.60;;;;;;;12.71;80.27;100101.54;104159;1281;95291;-71
2022/09/09 03:26:50;;;;;;;8.80;5.30;;;;;;;12.72;80.12;100102.58;104436;1279;95141;-73
2022/09/09 03:29:18;;;;;;;10.30;5.70;;;;;;;12.71;80.08;100100.09;104244;1279;137836;-74
2022/09/09 03:31:46;;;;;;;11.20;5.60;;;;;;;12.79;80.25;100099.05;104566;1279;99823;-73
2022/09/09 03:34:14;;;;;;;9.10;5.60;;;;;;;12.93;79.89;100104.74;104447;1279;139317;-73
2022/09/09 03:36:42;;;;;;;10.00;5.70;;;;;;;12.97;79.45;100106.02;104510;1279;95249;-72
2022/09/09 03:39:10;;;;;;;8.90;5.40;;;;;;;12.96;79.47;100099.64;104163;1279;95208;-73
2022/09/09 03:41:39;;;;;;;8.10;4.80;;;;;;;13.00;79.46;100104.81;103865;1279;138833;-74
2022/09/09 03:44:07;;;;;;;8.60;5.50;;;;;;;12.99;79.11;100104.48;104224;1279;99743;-74
2022/09/09 03:46:38;;;;;;;8.70;5.40;;;;;;;12.94;79.32;100110.96;103901;1279;138604;-72
2022/09/09 03:49:06;;;;;;;9.40;5.40;;;;;;;12.90;79.51;100114.66;103938;1279;95716;-74
2022/09/09 03:51:36;;;;;;;8.70;5.40;;;;;;;12.88;79.67;100116.70;104158;1279;95535;-74
2022/09/09 03:54:07;;;;;;;9.30;5.30;;;;;;;12.95;79.82;100118.39;103949;1279;138673;-74
2022/09/09 03:56:36;;;;;;;8.50;5.30;;;;;;;12.99;79.49;100111.64;103734;1279;98435;-74
2022/09/09 03:59:04;;;;;;;9.00;5.00;;;;;;;12.95;79.41;100115.20;103730;1279;139094;-70
2022/09/09 04:01:32;;;;;;;9.30;5.70;;;;;;;12.97;79.50;100113.69;103954;1281;95205;-73
2022/09/09 04:04:02;;;;;;;8.40;5.30;;;;;;;13.03;79.35;100109.48;104087;1279;140077;-73
2022/09/09 04:06:29;;;;;;;9.30;5.20;;;;;;;13.08;79.18;100111.27;104066;1279;109966;-74
2022/09/09 04:08:57;;;;;;;8.30;5.20;;;;;;;13.01;79.26;100109.23;103864;1281;98606;-74
2022/09/09 04:11:26;;;;;;;8.20;5.00;;;;;;;12.92;79.39;100107.66;103692;1281;139008;-73
2022/09/09 04:13:55;;;;;;;9.30;5.40;;;;;;;12.87;79.72;100107.30;104040;1279;95243;-74
2022/09/09 04:16:23;;;;;;;8.90;5.40;;;;;;;12.93;79.86;100108.52;103655;1282;139071;-74
2022/09/09 04:18:52;;;;;;;8.40;5.00;;;;;;;13.00;80.10;100106.79;104077;1279;109835;-73
2022/09/09 04:21:21;;;;;;;9.50;5.50;;;;;;;13.02;79.75;100110.44;103672;1282;99591;-74
2022/09/09 04:23:49;;;;;;;8.70;5.00;;;;;;;12.95;79.86;100110.92;103653;1281;138459;-75
2022/09/09 04:26:18;;;;;;;8.80;5.40;;;;;;;12.90;80.07;100109.87;103994;1279;97011;-75
2022/09/09 04:28:45;;;;;;;9.70;5.40;;;;;;;12.92;80.11;100107.30;103968;1280;139303;-73
2022/09/09 04:31:21;;;;;;;9.20;5.30;;;;;;;13.00;79.94;100106.60;104102;1280;109846;-74
2022/09/09 04:33:51;;;;;;;11.90;7.70;;;;;;;12.96;79.90;100114.58;104098;1279;138559;-73
2022/09/09 04:36:19;;;;;;;8.60;5.30;;;;;;;13.00;80.09;100116.75;104032;1279;108161;-74
2022/09/09 04:38:49;;;;;;;8.40;5.10;;;;;;;13.03;79.93;100111.81;103880;1280;95695;-73
2022/09/09 04:41:18;;;;;;;9.50;5.30;;;;;;;13.08;79.94;100111.45;104193;1279;139216;-74
2022/09/09 04:43:48;;;;;;;8.20;5.00;;;;;;;13.13;80.00;100114.45;103862;1280;110024;-74
2022/09/09 04:46:19;;;;;;;8.90;5.30;;;;;;;13.15;79.92;100117.94;103949;1279;138763;-74
2022/09/09 04:48:49;;;;;;;8.20;4.80;;;;;;;13.13;79.93;100118.19;104011;1280;109044;-75
2022/09/09 04:51:17;;;;;;;8.20;5.00;;;;;;;13.19;80.00;100124.15;104051;1279;95194;-75
2022/09/09 04:53:47;;;;;;;8.80;5.10;;;;;;;13.28;79.63;100127.73;103864;1280;138833;-73
2022/09/09 04:56:18;;;;;;;8.00;5.20;;;;;;;13.26;79.12;100129.77;104094;1279;109741;-75
2022/09/09 04:58:50;;;;;;;8.40;5.40;;;;;;;13.17;79.39;100129.78;103917;1280;138249;-73
2022/09/09 05:01:21;;;;;;;8.20;4.50;;;;;;;13.14;79.63;100128.32;104006;1279;108886;-75
2022/09/09 05:03:51;;;;;;;8.40;4.90;;;;;;;13.16;80.02;100126.79;103859;1280;139220;-73
2022/09/09 05:06:22;;;;;;;8.70;4.90;;;;;;;13.20;79.96;100129.48;104083;1280;95365;-71
2022/09/09 05:08:55;;;;;;;7.80;4.90;;;;;;;13.28;79.57;100130.04;104045;1279;109728;-72
2022/09/09 05:11:34;;;;;;;7.20;4.70;;;;;;;13.34;79.69;100134.48;103941;1278;138249;-73
2022/09/09 05:14:07;;;;;;;7.90;4.20;;;;;;;13.34;79.29;100133.38;104075;1279;108266;-72
2022/09/09 05:16:35;;;;;;;7.20;4.50;;;;;;;13.31;79.43;100133.31;103702;1281;140754;-71
2022/09/09 05:19:03;;;;;;;7.80;4.80;;;;;;;13.29;79.60;100133.20;103817;1281;96669;-71
2022/09/09 05:21:41;;;;;;;7.30;4.60;;;;;;;13.33;79.60;100137.14;104094;1280;110653;-71
2022/09/09 05:24:09;;;;;;;8.20;4.60;;;;;;;13.36;79.48;100137.02;103773;1282;138595;-72
2022/09/09 05:26:37;;;;;;;8.00;4.30;;;;;;;13.36;79.40;100139.36;104101;1281;107566;-73
2022/09/09 05:29:05;;;;;;;8.10;4.90;;;;;;;13.40;79.47;100139.21;103822;1281;138589;-73
2022/09/09 05:31:33;;;;;;;7.20;4.60;;;;;;;13.40;79.35;100141.35;104044;1281;95349;-73
2022/09/09 05:34:03;;;;;;;7.70;4.40;;;;;;;13.37;79.55;100139.34;103893;1279;138706;-75
2022/09/09 05:36:32;;;;;;;8.00;4.50;;;;;;;13.38;79.67;100134.98;103616;1282;99405;-73
2022/09/09 05:39:01;;;;;;;7.60;4.20;;;;;;;13.39;79.68;100131.05;103762;1282;107363;-74
2022/09/09 05:41:30;;;;;;;7.50;4.90;;;;;;;13.42;79.47;100135.01;103664;1281;139304;-73
2022/09/09 05:44:01;;;;;;;7.50;4.70;;;;;;;13.42;79.65;100137.52;103748;1281;95212;-73
2022/09/09 05:46:30;;;;;;;8.10;4.70;;;;;;;13.44;79.59;100135.30;103619;1280;139013;-74
2022/09/09 05:48:58;;;;;;;6.70;4.40;;;;;;;13.45;79.66;100133.47;104291;1280;99326;-74
2022/09/09 05:51:32;;;;;;;6.60;4.20;;;;;;;13.48;79.69;100132.45;104136;1278;108808;-74
2022/09/09 05:54:04;;;;;;;7.30;4.70;;;;;;;13.50;79.65;100134.65;104076;1279;139018;-74
2022/09/09 05:56:34;;;;;;;8.30;5.50;;;;;;;13.55;79.72;100134.85;104128;1279;96532;-74
2022/09/09 05:59:03;;;;;;;7.90;4.70;;;;;;;13.60;79.52;100133.92;103873;1280;138990;-74
2022/09/09 06:01:33;;;;;;;7.30;4.00;;;;;;;13.57;79.39;100140.65;103858;1281;98819;-73
2022/09/09 06:04:03;;;;;;;7.20;4.20;;;;;;;13.48;79.60;100146.00;103936;1280;139175;-74
2022/09/09 06:06:36;;;;;;;7.50;4.80;;;;;;;13.47;79.93;100144.41;104090;1279;96740;-74
2022/09/09 06:09:10;;;;;;;6.90;4.70;;;;;;;13.53;79.89;100148.46;104025;1279;95659;-74
2022/09/09 06:11:40;;;;;;;7.40;4.30;;;;;;;13.60;79.97;100148.88;103830;1280;139078;-74
2022/09/09 06:14:09;;;;;;;7.40;4.60;;;;;;;13.58;79.46;100151.11;104159;1278;99808;-74
2022/09/09 06:16:37;;;;;;;7.60;4.30;;;;;;;13.54;79.62;100156.11;103691;1281;139054;-75
2022/09/09 06:19:12;;;;;;;7.90;4.90;;;;;;;13.55;79.83;100159.98;104109;1279;95206;-75
2022/09/09 06:21:40;;;;;;;7.40;4.80;;;;;;;13.60;79.89;100161.21;104093;1279;95236;-74
2022/09/09 06:24:10;;;;;;;7.50;4.70;;;;;;;13.57;79.79;100161.13;104285;1279;139107;-72
2022/09/09 06:26:42;;;;;;;8.20;4.40;;;;;;;13.58;79.83;100162.17;104209;1278;98834;-73
2022/09/09 06:29:12;;;;;;;8.50;4.60;;;;;;;13.58;79.98;100162.33;103662;1280;138578;-74
2022/09/09 06:31:41;;;;;;;7.90;4.70;;;;;;;13.63;80.23;100161.40;104148;1278;95295;-73
2022/09/09 06:34:19;;;;;;;7.70;4.60;;;;;;;13.68;79.91;100160.14;103994;1280;138605;-72
2022/09/09 06:36:49;;;;;;;7.70;4.50;;;;;;;13.71;80.10;100161.80;104088;1279;110013;-74
2022/09/09 06:39:17;;;;;;;7.40;4.70;;;;;;;13.79;79.95;100167.52;104072;1279;99288;-73
2022/09/09 06:41:45;;;;;;;8.10;5.00;;;;;;;13.87;79.81;100167.17;103956;1280;138566;-74
2022/09/09 06:44:36;;;;;;;7.80;4.60;;;;;;;13.88;79.61;100169.98;104057;1279;95681;-74
2022/09/09 06:47:05;;;;;;;7.60;4.80;;;;;;;13.91;79.38;100172.54;103933;1280;138790;-73
2022/09/09 06:49:34;;;;;;;9.00;5.00;;;;;;;13.90;79.32;100170.96;103688;1281;108746;-73
2022/09/09 06:52:04;;;;;;;9.10;5.70;;;;;;;13.96;79.45;100175.38;103945;1279;139342;-73
2022/09/09 06:54:32;;;;;;;7.90;4.60;;;;;;;13.98;79.23;100175.25;103712;1280;109218;-73
2022/09/09 06:57:01;;;;;;;7.30;4.70;;;;;;;13.99;79.11;100176.80;104043;1280;95382;-73
2022/09/09 06:59:49;;;;;;;7.80;4.40;;;;;;;13.97;79.25;100176.90;103765;1282;138785;-75
2022/09/09 07:02:17;;;;;;;8.30;5.20;;;;;;;13.91;79.02;100175.39;104185;1280;109460;-74
2022/09/09 07:04:45;;;;;;;9.20;5.80;;;;;;;13.86;79.21;100179.18;103921;1278;138689;-73
2022/09/09 07:07:15;;;;;;;8.20;5.00;;;;;;;13.79;79.23;100177.33;104104;1279;109339;-74
2022/09/09 07:09:45;;;;;;;7.90;5.20;;;;;;;13.84;79.73;100181.75;104299;1280;95739;-72
2022/09/09 07:12:13;;;;;;;7.80;5.60;;;;;;;13.88;79.60;100182.27;103926;1281;95311;-73
2022/09/09 07:14:45;;;;;;;9.00;5.40;;;;;;;14.00;79.88;100183.39;103712;1282;109742;-74
2022/09/09 07:17:15;;;;;;;9.10;5.30;;;;;;;13.99;79.38;100186.63;103585;1282;96932;-72
2022/09/09 07:19:43;;;;;;;9.60;5.50;;;;;;;13.92;79.11;100189.26;103626;1282;138969;-75
2022/09/09 07:22:13;;;;;;;9.50;5.50;;;;;;;13.84;79.49;100187.08;103767;1281;95242;-74
2022/09/09 07:24:42;;;;;;;9.20;5.80;;;;;;;13.92;79.82;100190.54;104030;1280;139428;-74
2022/09/09 07:27:10;;;;;;;9.70;5.60;;;;;;;13.90;79.53;100191.48;103969;1281;109799;-74
2022/09/09 07:29:38;;;;;;;10.00;5.90;;;;;;;13.87;79.82;100191.27;103894;1281;99567;-73
2022/09/09 07:32:07;;;;;;;9.70;5.40;;;;;;;13.85;79.91;100189.73;103945;1281;139033;-73
2022/09/09 07:34:37;;;;;;;9.40;5.80;;;;;;;13.87;80.11;100189.81;104128;1280;96189;-73
2022/09/09 07:37:05;;;;;;;9.20;5.80;;;;;;;13.99;80.34;100188.27;103930;1281;95175;-73
2022/09/09 07:39:33;;;;;;;10.00;6.20;;;;;;;14.07;80.04;100193.41;103954;1279;110388;-73
2022/09/09 07:42:01;;;;;;;10.60;6.00;;;;;;;14.12;80.05;100193.93;104162;1280;99727;-74
2022/09/09 07:44:32;;;;;;;9.20;5.60;;;;;;;14.25;79.91;100192.63;104034;1280;139014;-72
2022/09/09 07:47:06;;;;;;;10.00;6.50;;;;;;;14.39;79.62;100196.29;104179;1281;96432;-73
2022/09/09 07:49:40;;;;;;;10.10;7.10;;;;;;;14.35;78.99;100202.01;104138;1272;141435;-81
2022/09/09 07:52:08;;;;;;;10.60;7.00;;;;;;;14.47;79.28;100206.13;104515;1281;111089;-81
2022/09/09 07:56:52;;;;;;;11.40;7.10;;;;;;;14.46;78.48;100216.01;100856;1305;634788;-72
2022/09/09 07:59:22;;;;;;;11.10;6.80;;;;;;;14.31;78.81;100226.29;102890;1292;95050;-72
2022/09/09 08:01:54;;;;;;;10.60;6.80;;;;;;;14.22;78.87;100231.69;102634;1290;138684;-72
2022/09/09 08:04:27;;;;;;;11.80;7.40;;;;;;;14.20;79.45;100234.45;103048;1289;105156;-73
2022/09/09 08:06:58;;;;;;;10.80;7.40;;;;;;;14.19;79.42;100237.70;103068;1290;99716;-71
2022/09/09 08:09:28;;;;;;;11.20;7.20;;;;;;;14.14;79.64;100238.10;101836;1287;1512669;-72
2022/09/09 08:12:02;;;;;;;10.40;7.10;;;;;;;14.09;79.70;100240.30;103414;1287;94428;-72
2022/09/09 08:14:30;;;;;;;10.50;7.40;;;;;;;14.08;80.09;100238.77;103077;1287;138070;-71
2022/09/09 08:16:59;;;;;;;11.10;7.20;;;;;;;14.14;80.18;100237.75;103123;1287;105684;-70
2022/09/09 08:19:29;;;;;;;12.40;8.10;;;;;;;14.23;80.11;100240.02;103439;1284;138064;-73
2022/09/09 08:21:58;;;;;;;11.80;7.60;;;;;;;14.34;80.00;100241.35;103656;1283;108805;-72
2022/09/09 08:24:26;;;;;;;13.20;7.60;;;;;;;14.34;79.67;100243.13;103670;1283;94332;-72
2022/09/09 08:26:54;;;;;;;13.50;8.00;;;;;;;14.38;79.84;100239.92;103226;1284;138460;-72
2022/09/09 08:29:23;;;;;;;13.10;8.30;;;;;;;14.38;79.53;100238.30;103419;1283;107044;-71
2022/09/09 08:31:54;;;;;;;13.30;8.70;;;;;;;14.43;79.78;100241.51;103521;1283;138369;-72
2022/09/09 08:34:25;;;;;;;12.40;8.20;;;;;;;14.48;79.75;100238.05;103809;1283;107873;-70
2022/09/09 08:36:54;;;;;;;12.20;8.10;;;;;;;14.57;79.53;100242.63;103568;1285;94714;-71
2022/09/09 08:39:26;;;;;;;12.90;8.90;;;;;;;14.63;78.92;100248.11;103552;1284;138204;-71
2022/09/09 08:42:05;;;;;;;13.60;8.70;;;;;;;14.56;78.96;100249.82;103778;1283;107415;-71
2022/09/09 08:44:57;;;;;;;11.80;8.50;;;;;;;14.50;79.15;100247.41;103714;1283;138175;-70
2022/09/09 08:47:49;;;;;;;13.20;8.40;;;;;;;14.61;79.46;100249.07;103479;1286;107938;-71
2022/09/09 08:50:26;;;;;;;15.00;9.60;;;;;;;14.67;79.53;100252.77;103604;1283;138524;-70
2022/09/09 08:53:10;;;;;;;14.30;9.40;;;;;;;14.79;79.34;100256.31;103603;1283;94880;-70
2022/09/09 08:56:01;;;;;;;13.30;8.60;;;;;;;14.94;79.17;100250.66;103328;1284;138590;-73
2022/09/09 08:58:50;;;;;;;15.40;9.80;;;;;;;14.84;78.19;100254.84;103671;1283;97312;-70
2022/09/09 09:01:36;;;;;;;17.00;10.40;;;;;;;14.72;78.49;100250.02;103620;1284;138414;-71
2022/09/09 09:04:43;;;;;;;16.70;10.50;;;;;;;14.69;79.02;100250.67;103693;1283;96566;-71
2022/09/09 09:07:23;;;;;;;14.90;10.00;;;;;;;14.68;78.99;100252.70;103730;1283;138541;-71
2022/09/09 09:10:14;;;;;;;15.10;9.70;;;;;;;14.73;79.01;100257.33;103662;1283;107270;-71
2022/09/09 09:13:03;;;;;;;15.40;9.80;;;;;;;14.78;79.22;100257.80;103674;1283;99537;-71
2022/09/09 09:15:38;;;;;;;17.30;11.40;;;;;;;14.80;78.79;100263.24;103584;1284;137890;-71
2022/09/09 09:18:12;;;;;;;16.00;10.80;;;;;;;14.76;79.10;100268.28;103495;1283;94437;-71
2022/09/09 09:20:51;;;;;;;16.20;10.20;;;;;;;14.78;79.25;100274.41;103371;1283;138934;-71
2022/09/09 09:23:26;;;;;;;17.20;9.70;;;;;;;14.75;79.12;100278.48;103553;1284;107335;-70
2022/09/09 09:26:00;;;;;;;17.40;11.10;;;;;;;14.84;79.43;100277.90;103452;1283;138750;-71
2022/09/09 09:28:33;;;;;;;19.00;12.80;;;;;;;14.94;79.07;100278.73;103398;1284;109443;-70
2022/09/09 09:31:10;;;;;;;18.40;11.90;;;;;;;15.06;78.93;100279.04;103446;1286;94836;-71
2022/09/09 09:33:50;;;;;;;18.40;11.70;;;;;;;15.10;78.64;100276.54;103548;1283;94266;-71
2022/09/09 09:36:24;;;;;;;18.50;12.40;;;;;;;15.13;78.65;100275.84;103520;1285;107546;-71
2022/09/09 09:38:57;;;;;;;20.80;13.20;;;;;;;15.21;78.35;100273.34;103457;1283;138846;-72
2022/09/09 09:41:45;;;;;;;18.60;11.70;;;;;;;15.23;78.01;100273.21;103299;1284;108960;-72
2022/09/09 09:44:29;;;;;;;19.50;12.30;;;;;;;15.16;77.97;100274.11;103560;1284;139024;-71
2022/09/09 09:47:15;;;;;;;19.40;12.10;;;;;;;15.15;78.09;100275.41;103736;1284;94686;-69
2022/09/09 09:49:52;;;;;;;19.70;12.90;;;;;;;15.05;78.26;100277.29;103670;1283;138303;-70
2022/09/09 09:52:24;;;;;;;19.40;12.70;;;;;;;15.10;78.92;100276.18;103460;1284;100126;-70
2022/09/09 09:54:54;;;;;;;19.90;12.20;;;;;;;15.18;78.44;100275.63;103545;1284;107794;-70
2022/09/09 09:57:31;;;;;;;19.90;12.50;;;;;;;15.16;78.50;100277.48;103794;1283;138562;-69
2022/09/09 10:00:08;;;;;;;21.00;12.80;;;;;;;15.17;78.53;100276.02;103685;1283;94742;-70
2022/09/09 10:02:43;;;;;;;20.60;12.60;;;;;;;15.19;78.37;100277.53;103562;1283;137804;-71
2022/09/09 10:05:21;;;;;;;21.30;13.50;;;;;;;15.15;78.54;100284.16;103667;1285;99488;-71
2022/09/09 10:08:11;;;;;;;20.90;12.80;;;;;;;15.16;78.80;100284.48;103775;1283;138396;-70
2022/09/09 10:10:55;;;;;;;21.20;13.30;;;;;;;15.21;78.64;100288.87;103811;1283;94328;-70
2022/09/09 10:14:01;;;;;;;22.20;14.30;;;;;;;15.15;78.44;100289.33;103654;1283;140246;-70
2022/09/09 10:16:37;;;;;;;21.90;13.50;;;;;;;15.13;78.60;100285.85;103988;1277;107584;-70
2022/09/09 10:19:12;;;;;;;21.70;13.60;;;;;;;15.13;79.01;100285.00;104115;1277;99358;-70
2022/09/09 10:22:01;;;;;;;23.60;13.90;;;;;;;15.23;79.02;100287.19;104740;1277;107858;-70
2022/09/09 10:24:35;;;;;;;22.40;14.30;;;;;;;15.28;78.60;100292.50;104125;1278;94324;-70
2022/09/09 10:27:25;;;;;;;24.00;13.80;;;;;;;15.28;78.79;100300.52;104075;1277;138369;-70
2022/09/09 10:30:10;;;;;;;21.50;13.10;;;;;;;15.31;78.79;100303.80;104037;1277;107099;-69
2022/09/09 10:32:40;;;;;;;21.90;14.20;;;;;;;15.35;78.91;100307.16;103220;1277;139312;-70
2022/09/09 10:35:36;;;;;;;23.00;13.80;;;;;;;15.45;79.01;100311.71;103235;1278;109114;-70
2022/09/09 10:38:13;;;;;;;22.20;13.60;;;;;;;15.51;78.56;100325.38;104036;1277;138445;-71
2022/09/09 10:40:55;;;;;;;22.40;13.50;;;;;;;15.42;78.12;100326.20;104236;1277;94304;-71
2022/09/09 10:43:39;;;;;;;24.30;14.20;;;;;;;15.32;78.23;100336.13;103347;1277;139706;-69
2022/09/09 10:46:29;;;;;;;23.70;14.00;;;;;;;15.30;78.60;100335.35;103495;1278;99389;-69
2022/09/09 10:49:16;;;;;;;23.90;14.70;;;;;;;15.27;78.70;100336.04;103410;1278;109122;-70
2022/09/09 10:52:13;;;;;;;22.90;15.00;;;;;;;15.34;79.40;100334.60;103377;1277;94331;-70
2022/09/09 10:55:02;;;;;;;25.00;15.30;;;;;;;15.54;79.18;100334.02;103549;1277;94354;-69
2022/09/09 10:57:41;;;;;;;25.40;16.10;;;;;;;15.70;78.64;100336.98;103300;1277;138163;-71
2022/09/09 11:00:19;;;;;;;23.80;14.30;;;;;;;15.77;78.10;100343.81;104271;1277;99469;-70
2022/09/09 11:03:02;;;;;;;25.00;15.00;;;;;;;15.70;77.70;100341.30;104078;1277;138256;-69
2022/09/09 11:05:43;;;;;;;24.90;15.60;;;;;;;15.60;77.96;100338.73;104331;1277;94465;-70
2022/09/09 11:08:22;;;;;;;27.30;15.90;;;;;;;15.58;78.31;100342.41;104156;1277;138666;-70
2022/09/09 11:11:18;;;;;;;26.00;15.60;;;;;;;15.50;78.25;100347.42;104070;1277;107656;-70
2022/09/09 11:13:59;;;;;;;28.60;16.20;;;;;;;15.51;78.41;100354.36;104003;1277;138678;-70
2022/09/09 11:16:31;;;;;;;24.90;15.10;;;;;;;15.51;78.27;100358.15;104146;1277;108796;-70
2022/09/09 11:19:15;;;;;;;26.30;16.30;;;;;;;15.47;78.61;100353.14;103490;1277;94653;-70
2022/09/09 11:21:49;;;;;;;27.20;16.40;;;;;;;15.61;78.83;100354.09;103443;1278;94397;-70
2022/09/09 11:24:33;;;;;;;28.50;16.30;;;;;;;15.67;78.55;100346.45;103501;1277;106569;-70
2022/09/09 11:27:24;;;;;;;27.80;15.60;;;;;;;15.74;78.62;100350.62;103006;1279;141664;-70
2022/09/09 11:30:02;;;;;;;25.50;16.30;;;;;;;15.69;77.98;100353.88;104174;1279;108802;-70
2022/09/09 11:32:40;;;;;;;26.70;16.30;;;;;;;15.65;78.35;100356.94;104193;1280;138579;-70
2022/09/09 11:35:27;;;;;;;26.90;16.90;;;;;;;15.68;78.63;100357.34;104210;1278;94887;-70
2022/09/09 11:38:25;;;;;;;30.20;17.20;;;;;;;15.68;78.27;100356.98;104094;1278;139006;-69
2022/09/09 11:41:02;;;;;;;26.70;15.80;;;;;;;15.72;78.60;100355.35;102895;1280;98898;-70
2022/09/09 11:43:41;;;;;;;28.60;17.70;;;;;;;15.77;78.43;100359.95;102889;1280;138467;-70
2022/09/09 11:46:11;;;;;;;29.00;18.50;;;;;;;15.77;78.31;100361.19;102788;1279;94793;-69